Time;durP1;ratioP1;P1;durP2;ratioP2;P2;SDS_P1;SDS_P2;PMS_P1;PMS_P2;Temp;Humidity;BMP_temperature;BMP_pressure;BME280_temperature;BME280_humidity;BME280_pressure;Samples;Min_cycle;Max_cycle;Signal;HPM_P1;HPM_P2
2024/01/25 00:01:15;;;;;;;6.33;1.27;;;8.60;99.90;8.50;100805.00;;;;4903039;28;88943;-73
2024/01/25 00:03:40;;;;;;;4.20;1.80;;;8.60;99.90;8.50;100797.00;;;;4896784;28;99828;-72
2024/01/25 00:06:07;;;;;;;3.37;1.27;;;8.60;99.90;8.50;100805.00;;;;4904623;28;108269;-72
2024/01/25 00:08:34;;;;;;;10.47;2.40;;;8.60;99.90;8.50;100801.00;;;;4900531;28;88102;-71
2024/01/25 00:11:02;;;;;;;7.10;2.40;;;8.60;99.90;8.50;100788.00;;;;4905098;28;87798;-71
2024/01/25 00:13:28;;;;;;;1.60;1.10;;;8.60;99.90;8.60;100805.00;;;;4909967;28;88607;-73
2024/01/25 00:15:56;;;;;;;8.03;2.13;;;8.60;99.90;8.60;100797.00;;;;4901385;28;106778;-73
2024/01/25 00:18:22;;;;;;;3.33;1.60;;;8.70;99.90;8.60;100814.00;;;;4886457;28;109550;-73
2024/01/25 00:20:47;;;;;;;3.47;1.30;;;8.70;99.90;8.60;100805.00;;;;4903808;28;108570;-73
2024/01/25 00:23:13;;;;;;;3.47;1.57;;;8.60;99.90;8.60;100813.00;;;;4902293;28;112814;-72
2024/01/25 00:25:39;;;;;;;3.07;1.87;;;8.70;99.90;8.60;100817.00;;;;4907840;28;115892;-74
2024/01/25 00:28:05;;;;;;;4.97;1.90;;;8.70;99.90;8.60;100813.00;;;;4905392;28;110022;-72
2024/01/25 00:30:30;;;;;;;7.90;1.60;;;8.80;99.90;8.70;100809.00;;;;4904435;28;87905;-72
2024/01/25 00:32:57;;;;;;;2.73;1.50;;;8.80;99.90;8.70;100809.00;;;;4901515;28;116609;-72
2024/01/25 00:35:24;;;;;;;4.80;1.60;;;8.70;99.90;8.70;100809.00;;;;4903649;28;88817;-74
2024/01/25 00:37:50;;;;;;;6.23;1.33;;;8.80;99.90;8.70;100811.00;;;;4904678;28;91657;-72
2024/01/25 00:40:18;;;;;;;5.93;1.13;;;8.80;99.90;8.70;100816.00;;;;4900403;28;88006;-73
2024/01/25 00:42:52;;;;;;;8.03;1.70;;;8.80;99.90;8.70;100823.00;;;;4922262;28;88001;-74
2024/01/25 00:45:20;;;;;;;5.47;2.27;;;8.80;99.90;8.70;100802.00;;;;4903227;28;87729;-74
2024/01/25 00:47:46;;;;;;;4.03;1.63;;;8.90;99.90;8.80;100823.00;;;;4919313;28;88248;-72
2024/01/25 00:50:13;;;;;;;9.10;1.37;;;8.90;99.90;8.70;100814.00;;;;4899563;28;100060;-70
2024/01/25 00:52:39;;;;;;;5.57;1.70;;;8.80;99.90;8.70;100830.00;;;;4914047;28;88016;-71
2024/01/25 00:55:06;;;;;;;12.33;1.70;;;8.80;99.90;8.70;100818.00;;;;4917699;28;89380;-70
2024/01/25 00:57:32;;;;;;;7.30;2.20;;;8.90;99.90;8.70;100829.00;;;;4896708;28;88072;-72
2024/01/25 00:59:59;;;;;;;4.67;1.47;;;8.80;99.90;8.70;100827.00;;;;4900606;28;87904;-71
2024/01/25 01:02:30;;;;;;;4.33;1.63;;;8.90;99.90;8.70;100839.00;;;;4901893;28;88464;-71
2024/01/25 01:05:00;;;;;;;5.07;1.70;;;8.80;99.90;8.70;100838.00;;;;4895975;28;88202;-71
2024/01/25 01:07:26;;;;;;;3.23;1.30;;;8.80;99.90;8.70;100835.00;;;;4895749;28;87249;-72
2024/01/25 01:09:52;;;;;;;6.63;1.90;;;8.90;99.90;8.70;100843.00;;;;4898312;28;88005;-70
2024/01/25 01:12:18;;;;;;;11.27;2.13;;;8.90;99.90;8.70;100844.00;;;;4900045;28;117969;-73
2024/01/25 01:14:44;;;;;;;3.73;1.53;;;8.90;99.90;8.80;100845.00;;;;4900848;28;117062;-72
2024/01/25 01:17:09;;;;;;;6.97;1.40;;;8.90;99.90;8.80;100838.00;;;;4898570;28;109531;-70
2024/01/25 01:19:35;;;;;;;3.20;1.10;;;8.90;99.90;8.80;100836.00;;;;4901907;28;107836;-72
2024/01/25 01:22:01;;;;;;;8.03;2.30;;;8.90;99.90;8.80;100839.00;;;;4897430;28;118877;-73
2024/01/25 01:24:26;;;;;;;2.30;1.13;;;8.80;99.90;8.80;100853.00;;;;4899544;28;117137;-73
2024/01/25 01:26:52;;;;;;;4.50;1.80;;;8.80;99.90;8.80;100849.00;;;;4900454;28;110643;-71
2024/01/25 01:29:18;;;;;;;2.90;1.43;;;8.80;99.90;8.70;100845.00;;;;4900738;28;87985;-71
2024/01/25 01:31:44;;;;;;;7.60;1.57;;;8.90;99.90;8.70;100843.00;;;;4898439;28;105589;-73
2024/01/25 01:34:12;;;;;;;9.00;1.73;;;8.80;99.90;8.70;100823.00;;;;4899810;28;112053;-73
2024/01/25 01:36:38;;;;;;;2.57;1.70;;;8.80;99.90;8.70;100829.00;;;;4913589;28;87909;-72
2024/01/25 01:39:03;;;;;;;11.40;2.23;;;8.80;99.90;8.70;100839.00;;;;4901515;28;100576;-71
2024/01/25 01:41:29;;;;;;;7.77;1.90;;;8.90;99.90;8.70;100838.00;;;;4900946;28;88839;-72
2024/01/25 01:43:55;;;;;;;3.77;2.23;;;8.90;99.90;8.80;100858.00;;;;4899169;28;96891;-73
2024/01/25 01:46:37;;;;;;;10.40;2.27;;;8.80;99.90;8.70;100855.00;;;;4915673;28;108722;-72
2024/01/25 01:49:04;;;;;;;7.17;2.43;;;8.80;99.90;8.80;100837.00;;;;4898965;28;87935;-71
2024/01/25 01:51:31;;;;;;;8.40;2.03;;;8.90;99.90;8.70;100857.00;;;;4898478;28;90669;-71
2024/01/25 01:53:57;;;;;;;5.53;1.90;;;8.90;99.90;8.80;100839.00;;;;4912989;28;103454;-71
2024/01/25 01:56:28;;;;;;;16.00;1.73;;;8.90;99.90;8.70;100854.00;;;;4902251;28;87245;-71
2024/01/25 01:58:59;;;;;;;2.40;1.23;;;8.90;99.90;8.70;100864.00;;;;4899767;28;87909;-71
2024/01/25 02:01:25;;;;;;;5.70;1.10;;;8.80;99.90;8.70;100862.00;;;;4910960;28;89559;-73
2024/01/25 02:03:52;;;;;;;6.60;1.97;;;8.80;99.90;8.70;100866.00;;;;4899146;28;88507;-71
2024/01/25 02:06:19;;;;;;;3.27;1.20;;;8.80;99.90;8.70;100859.00;;;;4896530;28;88080;-72
2024/01/25 02:08:46;;;;;;;5.30;1.47;;;8.80;99.90;8.70;100862.00;;;;4890045;28;88223;-71
2024/01/25 02:11:12;;;;;;;4.17;1.33;;;8.80;99.90;8.70;100868.00;;;;4917247;28;105643;-71
2024/01/25 02:13:38;;;;;;;2.27;1.70;;;8.80;99.90;8.70;100865.00;;;;4894208;28;116965;-70
2024/01/25 02:16:05;;;;;;;6.00;1.83;;;8.80;99.90;8.60;100875.00;;;;4895582;28;109409;-72
2024/01/25 02:18:31;;;;;;;10.13;2.13;;;8.80;99.90;8.60;100870.00;;;;4913464;28;88122;-74
2024/01/25 02:20:57;;;;;;;4.67;0.90;;;8.70;99.90;8.60;100868.00;;;;4892603;28;115581;-70
2024/01/25 02:23:22;;;;;;;4.10;1.67;;;8.70;99.90;8.60;100854.00;;;;4898955;28;88045;-74
2024/01/25 02:25:48;;;;;;;4.57;1.50;;;8.70;99.90;8.60;100838.00;;;;4898757;28;109837;-72
2024/01/25 02:28:13;;;;;;;9.20;1.80;;;8.70;99.90;8.60;100871.00;;;;4896131;28;109047;-72
2024/01/25 02:30:40;;;;;;;4.97;0.83;;;8.70;99.90;8.60;100859.00;;;;4895703;28;87934;-71
2024/01/25 02:33:06;;;;;;;6.63;1.67;;;8.70;99.90;8.60;100858.00;;;;4897194;28;89000;-70
2024/01/25 02:35:32;;;;;;;2.47;1.30;;;8.70;99.90;8.60;100855.00;;;;4897581;28;110224;-71
2024/01/25 02:37:58;;;;;;;9.10;1.83;;;8.40;99.90;8.60;100884.00;;;;4896810;28;88031;-74
2024/01/25 02:40:24;;;;;;;3.77;1.30;;;8.70;99.90;8.60;100866.00;;;;4894534;28;117801;-74
2024/01/25 02:42:49;;;;;;;10.83;1.80;;;8.70;99.90;8.40;100881.00;;;;4896956;28;118863;-74
2024/01/25 02:45:15;;;;;;;2.60;1.57;;;8.60;99.90;8.10;100888.00;;;;4899265;28;105392;-74
2024/01/25 02:47:41;;;;;;;13.00;2.30;;;8.40;99.90;7.90;100885.00;;;;4899021;28;98470;-71
2024/01/25 02:50:07;;;;;;;6.60;2.40;;;8.10;99.90;7.60;100897.00;;;;4897936;28;88178;-71
2024/01/25 02:52:33;;;;;;;4.87;1.77;;;7.90;99.90;7.40;100904.00;;;;4894263;28;88994;-74
2024/01/25 02:54:58;;;;;;;6.57;1.87;;;7.70;99.90;7.30;100901.00;;;;4898524;28;96318;-79
2024/01/25 02:57:25;;;;;;;5.60;1.77;;;7.60;99.90;7.20;100896.00;;;;4895123;28;109689;-77
2024/01/25 02:59:51;;;;;;;11.50;1.73;;;7.40;99.90;7.10;100896.00;;;;4896071;28;104074;-77
2024/01/25 03:02:19;;;;;;;6.50;1.80;;;7.30;99.90;7.00;100888.00;;;;4896003;28;96199;-77
2024/01/25 03:04:45;;;;;;;9.23;1.97;;;7.20;99.90;7.00;100904.00;;;;4913284;28;87798;-78
2024/01/25 03:07:11;;;;;;;7.87;2.47;;;7.10;99.90;6.90;100903.00;;;;4904948;28;87664;-78
2024/01/25 03:09:37;;;;;;;5.70;2.17;;;7.10;99.90;6.90;100898.00;;;;4897479;28;89550;-76
2024/01/25 03:12:06;;;;;;;5.97;1.53;;;7.10;99.90;6.80;100903.00;;;;4911053;28;117135;-75
2024/01/25 03:14:31;;;;;;;5.73;1.73;;;7.00;99.90;6.80;100913.00;;;;4896819;28;98115;-76
2024/01/25 03:16:57;;;;;;;4.47;1.63;;;7.00;99.90;6.80;100904.00;;;;4897662;28;106674;-75
2024/01/25 03:19:26;;;;;;;1.63;1.43;;;7.00;99.90;6.80;100899.00;;;;4909312;28;119506;-76
2024/01/25 03:21:52;;;;;;;7.30;2.27;;;7.00;99.90;6.70;100907.00;;;;4893125;28;92184;-75
2024/01/25 03:24:17;;;;;;;4.53;2.20;;;6.60;99.90;6.70;100911.00;;;;4895626;28;88709;-69
2024/01/25 03:26:43;;;;;;;12.90;1.80;;;7.30;99.90;6.70;100905.00;;;;4892542;28;108265;-69
2024/01/25 03:29:09;;;;;;;17.00;2.30;;;7.10;99.90;6.60;100893.00;;;;4898223;28;118672;-69
2024/01/25 03:31:36;;;;;;;5.60;2.13;;;6.80;99.90;6.60;100890.00;;;;4899731;28;117513;-71
2024/01/25 03:34:02;;;;;;;6.33;2.50;;;7.40;99.90;6.50;100885.00;;;;4900749;28;87165;-69
2024/01/25 03:36:28;;;;;;;9.57;1.97;;;6.70;99.90;6.50;100899.00;;;;4897670;28;87798;-69
2024/01/25 03:38:53;;;;;;;4.30;2.63;;;6.80;99.90;6.50;100880.00;;;;4897178;28;117394;-71
2024/01/25 03:41:20;;;;;;;4.70;1.60;;;6.90;99.90;6.50;100880.00;;;;4895170;28;117678;-73
2024/01/25 03:43:46;;;;;;;3.00;1.63;;;6.70;99.90;6.50;100890.00;;;;4894631;28;110049;-74
2024/01/25 03:46:12;;;;;;;4.93;2.47;;;6.70;99.90;6.50;100870.00;;;;4871756;28;108243;-75
2024/01/25 03:48:38;;;;;;;8.73;2.00;;;8.30;99.90;6.60;100894.00;;;;4896456;28;88818;-72
2024/01/25 03:51:04;;;;;;;9.07;2.17;;;6.70;99.90;6.60;100882.00;;;;4900859;28;88366;-71
2024/01/25 03:53:29;;;;;;;3.17;1.60;;;6.80;99.90;6.60;100891.00;;;;4896804;28;88935;-70
2024/01/25 03:55:55;;;;;;;4.73;2.17;;;7.00;99.90;6.70;100877.00;;;;4896971;28;108722;-71
2024/01/25 03:58:21;;;;;;;9.23;1.97;;;7.10;99.90;6.70;100899.00;;;;4894196;28;115891;-71
2024/01/25 04:00:47;;;;;;;5.03;2.03;;;7.30;99.90;6.80;100895.00;;;;4895898;28;115862;-73
2024/01/25 04:03:13;;;;;;;7.60;1.60;;;7.00;99.90;6.80;100893.00;;;;4894514;28;87798;-73
2024/01/25 04:05:41;;;;;;;5.53;1.93;;;7.00;99.90;6.90;100902.00;;;;4895714;28;109860;-72
2024/01/25 04:08:07;;;;;;;12.37;2.97;;;7.10;99.90;7.00;100910.00;;;;4897698;28;88780;-73
2024/01/25 04:10:33;;;;;;;6.30;1.93;;;7.30;99.90;7.10;100904.00;;;;4911158;28;110231;-72
2024/01/25 04:13:04;;;;;;;12.63;2.60;;;7.20;99.90;7.20;100912.00;;;;4910486;28;99605;-73
2024/01/25 04:15:30;;;;;;;12.33;2.50;;;7.30;99.90;7.30;100903.00;;;;4908786;28;88177;-74
2024/01/25 04:17:56;;;;;;;9.30;2.03;;;7.40;99.90;7.40;100909.00;;;;4894445;28;88535;-76
2024/01/25 04:20:22;;;;;;;9.87;2.00;;;7.50;99.90;7.40;100884.00;;;;4907712;28;89987;-74
2024/01/25 04:22:48;;;;;;;5.30;2.27;;;7.60;99.90;7.50;100897.00;;;;4901488;28;87152;-72
2024/01/25 04:25:14;;;;;;;10.57;2.67;;;7.50;99.90;7.50;100893.00;;;;4901621;28;87907;-71
2024/01/25 04:27:40;;;;;;;6.03;1.90;;;7.70;99.90;7.60;100908.00;;;;4897536;28;88284;-73
2024/01/25 04:30:07;;;;;;;6.27;2.50;;;7.70;99.90;7.60;100902.00;;;;4888139;28;88938;-73
2024/01/25 04:32:33;;;;;;;6.60;2.20;;;7.80;99.90;7.70;100912.00;;;;4898621;28;88064;-74
2024/01/25 04:34:59;;;;;;;8.13;2.67;;;7.80;99.90;7.70;100923.00;;;;4899762;28;100564;-73
2024/01/25 04:37:24;;;;;;;3.20;2.03;;;7.80;99.90;7.70;100925.00;;;;4896058;28;104604;-72
2024/01/25 04:39:50;;;;;;;1.70;1.40;;;7.90;99.90;7.80;100943.00;;;;4896775;28;118190;-72
2024/01/25 04:42:16;;;;;;;14.43;3.17;;;7.90;99.90;7.80;100916.00;;;;4898472;28;110402;-73
2024/01/25 04:44:42;;;;;;;4.80;1.67;;;7.90;99.90;7.80;100918.00;;;;4900701;28;108663;-70
2024/01/25 04:47:09;;;;;;;4.30;1.30;;;7.90;99.90;7.80;100928.00;;;;4897103;28;118517;-71
2024/01/25 04:49:35;;;;;;;6.30;2.57;;;7.90;99.90;7.80;100883.00;;;;4899586;28;87943;-73
2024/01/25 04:52:01;;;;;;;4.17;2.03;;;7.90;99.90;7.80;100908.00;;;;4911000;28;100667;-71
2024/01/25 04:54:27;;;;;;;5.63;2.13;;;8.00;99.90;7.80;100902.00;;;;4903187;28;89049;-74
2024/01/25 04:56:52;;;;;;;7.37;2.10;;;8.00;99.90;7.80;100917.00;;;;4899990;28;88753;-72
2024/01/25 04:59:18;;;;;;;6.93;2.43;;;7.90;99.90;7.90;100917.00;;;;4898249;28;116261;-72
2024/01/25 05:01:44;;;;;;;17.20;2.50;;;8.00;99.90;7.80;100912.00;;;;4899209;28;110359;-72
2024/01/25 05:04:09;;;;;;;13.33;2.67;;;7.90;99.90;7.80;100901.00;;;;4902984;28;87834;-72
2024/01/25 05:06:35;;;;;;;5.60;1.93;;;8.00;99.90;7.90;100908.00;;;;4879608;28;118518;-73
2024/01/25 05:09:01;;;;;;;6.10;1.77;;;8.10;99.90;7.90;100910.00;;;;4911045;28;88441;-71
2024/01/25 05:11:27;;;;;;;5.33;2.40;;;8.00;99.90;7.80;100928.00;;;;4880439;28;88225;-71
2024/01/25 05:13:52;;;;;;;3.10;1.70;;;8.00;99.90;7.80;100933.00;;;;4902651;28;108509;-73
2024/01/25 05:16:18;;;;;;;3.90;1.73;;;7.90;99.90;7.80;100934.00;;;;4909919;28;93566;-71
2024/01/25 05:18:44;;;;;;;5.30;1.67;;;8.10;99.90;7.80;100940.00;;;;4902250;28;106574;-72
2024/01/25 05:21:09;;;;;;;6.87;1.93;;;7.90;99.90;7.80;100934.00;;;;4899352;28;89146;-71
2024/01/25 05:23:35;;;;;;;3.73;1.17;;;7.90;99.90;7.80;100943.00;;;;4902147;28;103999;-72
2024/01/25 05:26:02;;;;;;;8.17;1.67;;;7.90;99.90;7.80;100960.00;;;;4898534;28;117579;-71
2024/01/25 05:28:27;;;;;;;5.73;1.67;;;7.90;99.90;7.80;100947.00;;;;4898189;28;88098;-72
2024/01/25 05:30:53;;;;;;;3.40;1.53;;;7.90;99.90;7.80;100952.00;;;;4899227;28;109805;-73
2024/01/25 05:33:19;;;;;;;11.57;2.83;;;7.90;99.90;7.80;100944.00;;;;4900928;28;106992;-73
2024/01/25 05:35:46;;;;;;;3.13;1.93;;;7.90;99.90;7.70;100957.00;;;;4901726;28;88161;-75
2024/01/25 05:38:11;;;;;;;8.77;2.37;;;7.80;99.90;7.70;100960.00;;;;4894549;28;115829;-76
2024/01/25 05:40:37;;;;;;;6.23;2.43;;;7.80;99.90;7.70;100959.00;;;;4898369;28;105290;-73
2024/01/25 05:43:03;;;;;;;2.27;1.73;;;7.80;99.90;7.70;100973.00;;;;4900257;28;109229;-73
2024/01/25 05:45:28;;;;;;;11.20;2.20;;;7.90;99.90;7.70;100973.00;;;;4896805;28;87924;-74
2024/01/25 05:47:54;;;;;;;5.33;1.93;;;8.50;99.90;7.70;100971.00;;;;4896944;28;117702;-76
2024/01/25 05:50:22;;;;;;;7.27;2.03;;;7.80;99.90;7.80;100960.00;;;;4890814;28;113296;-74
2024/01/25 05:52:48;;;;;;;4.50;2.03;;;7.90;99.90;7.70;100966.00;;;;4895995;28;109779;-74
2024/01/25 05:55:14;;;;;;;8.87;1.40;;;7.90;99.90;7.70;100973.00;;;;4896019;28;89455;-73
2024/01/25 05:57:44;;;;;;;6.17;1.73;;;7.80;99.90;7.70;100978.00;;;;4894900;28;88367;-75
2024/01/25 06:00:12;;;;;;;6.87;1.43;;;7.90;99.90;7.70;100974.00;;;;4907042;28;87410;-75
2024/01/25 06:02:38;;;;;;;5.40;2.17;;;7.80;99.90;7.70;100981.00;;;;4909849;28;87875;-74
2024/01/25 06:05:04;;;;;;;1.63;1.20;;;7.80;99.90;7.70;100993.00;;;;4895202;28;96466;-73
2024/01/25 06:07:30;;;;;;;8.00;2.13;;;7.80;99.90;7.70;100984.00;;;;4914818;28;104492;-74
2024/01/25 06:09:56;;;;;;;8.70;2.77;;;7.80;99.90;7.70;100990.00;;;;4898485;28;88146;-76
2024/01/25 06:12:21;;;;;;;2.23;1.03;;;7.80;99.90;7.70;101003.00;;;;4896601;28;108949;-74
2024/01/25 06:14:47;;;;;;;9.83;1.97;;;7.80;99.90;7.70;101004.00;;;;4891305;28;102703;-74
2024/01/25 06:17:12;;;;;;;9.33;2.43;;;7.80;99.90;7.70;101005.00;;;;4888876;28;97647;-75
2024/01/25 06:19:38;;;;;;;7.50;1.77;;;7.80;99.90;7.70;101025.00;;;;4896224;28;110815;-75
2024/01/25 06:22:04;;;;;;;11.73;1.97;;;7.80;99.90;7.70;101030.00;;;;4891416;28;108783;-76
2024/01/25 06:24:30;;;;;;;4.13;2.33;;;7.80;99.90;7.70;101032.00;;;;4892693;28;115363;-75
2024/01/25 06:26:55;;;;;;;4.10;1.70;;;7.40;99.90;7.70;101023.00;;;;4897130;28;88100;-75
2024/01/25 06:29:21;;;;;;;9.30;2.63;;;7.90;99.90;7.70;101040.00;;;;4888285;28;108699;-72
2024/01/25 06:31:47;;;;;;;5.60;1.40;;;9.30;99.90;7.70;101031.00;;;;4892545;28;109030;-73
2024/01/25 06:34:12;;;;;;;2.17;0.90;;;7.80;99.90;7.70;101044.00;;;;4898861;28;88561;-73
2024/01/25 06:36:38;;;;;;;6.17;1.67;;;7.90;99.90;7.70;101052.00;;;;4876565;28;88107;-74
2024/01/25 06:39:04;;;;;;;1.77;1.53;;;7.80;99.90;7.70;101035.00;;;;4898522;28;87797;-73
2024/01/25 06:41:30;;;;;;;5.37;1.87;;;7.90;99.90;7.70;101033.00;;;;4895200;28;88131;-75
2024/01/25 06:43:56;;;;;;;9.87;1.87;;;7.80;99.90;7.70;101039.00;;;;4897791;28;93838;-74
2024/01/25 06:46:22;;;;;;;7.83;2.33;;;7.80;99.90;7.70;101055.00;;;;4892623;28;99412;-74
2024/01/25 06:48:50;;;;;;;5.90;1.87;;;7.90;99.90;7.70;101064.00;;;;4896519;28;109494;-76
2024/01/25 06:51:15;;;;;;;7.63;2.40;;;7.80;99.90;7.70;101060.00;;;;4910044;28;87666;-76
2024/01/25 06:53:41;;;;;;;4.30;2.00;;;7.80;99.90;7.70;101044.00;;;;4898403;28;88038;-77
2024/01/25 06:56:07;;;;;;;9.10;2.57;;;7.80;99.90;7.70;101062.00;;;;4896302;28;116346;-73
2024/01/25 06:58:32;;;;;;;6.70;1.77;;;7.80;99.90;7.70;101064.00;;;;4901072;28;110486;-77
2024/01/25 07:01:00;;;;;;;6.67;2.07;;;7.80;99.90;7.70;101075.00;;;;4898248;28;108781;-75
2024/01/25 07:03:25;;;;;;;8.70;2.93;;;7.80;99.90;7.70;101075.00;;;;4895415;28;92383;-73
2024/01/25 07:05:51;;;;;;;9.93;1.47;;;7.80;99.90;7.60;101065.00;;;;4895345;28;98406;-74
2024/01/25 07:08:17;;;;;;;2.87;1.53;;;7.80;99.90;7.70;101076.00;;;;4898660;28;87884;-74
2024/01/25 07:10:44;;;;;;;9.07;1.93;;;7.80;99.90;7.70;101075.00;;;;4899323;28;108708;-74
2024/01/25 07:13:10;;;;;;;6.27;1.87;;;7.80;99.90;7.70;101096.00;;;;4901958;28;89217;-74
2024/01/25 07:15:35;;;;;;;4.73;2.00;;;7.80;99.90;7.70;101087.00;;;;4908647;28;116152;-74
2024/01/25 07:18:01;;;;;;;8.63;1.50;;;7.80;99.90;7.70;101089.00;;;;4895224;28;110904;-74
2024/01/25 07:20:27;;;;;;;2.63;1.60;;;7.80;99.90;7.70;101094.00;;;;4892610;28;88984;-73
2024/01/25 07:22:53;;;;;;;8.43;2.37;;;7.80;99.90;7.70;101094.00;;;;4892147;28;89093;-72
2024/01/25 07:25:18;;;;;;;6.53;2.20;;;7.80;99.90;7.70;101113.00;;;;4897220;28;88640;-72
2024/01/25 07:27:46;;;;;;;12.20;2.43;;;7.90;99.90;7.70;101110.00;;;;4896306;28;110264;-73
2024/01/25 07:30:13;;;;;;;6.90;2.80;;;7.80;99.90;7.70;101119.00;;;;4897303;28;88101;-73
2024/01/25 07:32:41;;;;;;;6.70;2.07;;;7.80;99.90;7.70;101122.00;;;;4909456;28;88753;-73
2024/01/25 07:35:09;;;;;;;7.57;1.93;;;7.80;99.90;7.70;101108.00;;;;4893069;28;87879;-72
2024/01/25 07:37:35;;;;;;;6.37;1.67;;;7.80;99.90;7.70;101117.00;;;;4897050;28;87025;-71
2024/01/25 07:40:03;;;;;;;9.97;2.30;;;7.70;99.90;7.70;101112.00;;;;4898101;28;88318;-74
2024/01/25 07:42:29;;;;;;;4.47;2.13;;;7.80;99.90;7.70;101125.00;;;;4900212;28;88053;-74
2024/01/25 07:44:54;;;;;;;12.77;1.57;;;7.80;99.90;7.70;101130.00;;;;4895727;28;117178;-73
2024/01/25 07:47:20;;;;;;;3.23;1.70;;;7.90;99.90;7.80;101122.00;;;;4897269;28;109791;-73
2024/01/25 07:49:46;;;;;;;5.97;1.67;;;7.80;99.90;7.80;101126.00;;;;4899536;28;87767;-76
2024/01/25 07:52:11;;;;;;;7.00;2.23;;;7.90;99.90;7.80;101121.00;;;;4877696;28;115923;-76
2024/01/25 07:54:37;;;;;;;3.43;1.67;;;7.90;99.90;7.80;101113.00;;;;4897738;28;116041;-76
2024/01/25 07:57:03;;;;;;;2.67;1.20;;;7.90;99.90;7.80;101136.00;;;;4899442;28;109910;-73
2024/01/25 07:59:29;;;;;;;4.60;1.57;;;7.90;99.90;7.80;101123.00;;;;4896038;28;87680;-73
2024/01/25 08:01:54;;;;;;;4.93;2.27;;;7.90;99.90;7.80;101141.00;;;;4894845;28;116674;-73
2024/01/25 08:04:20;;;;;;;9.37;2.43;;;8.00;99.90;7.80;101128.00;;;;4893699;28;89042;-73
2024/01/25 08:06:46;;;;;;;7.47;2.47;;;8.00;99.90;7.80;101123.00;;;;4894898;28;111879;-73
2024/01/25 08:09:11;;;;;;;10.93;1.90;;;8.00;99.90;7.80;101132.00;;;;4913362;28;107979;-73
2024/01/25 08:11:37;;;;;;;5.03;1.40;;;7.90;99.90;7.80;101143.00;;;;4901311;28;88037;-74
2024/01/25 08:14:03;;;;;;;12.43;2.20;;;8.00;99.90;7.80;101142.00;;;;4897073;28;116809;-73
2024/01/25 08:16:29;;;;;;;2.73;1.80;;;7.90;99.90;7.90;101123.00;;;;4900203;28;88462;-76
2024/01/25 08:18:55;;;;;;;1.80;1.67;;;7.90;99.90;7.90;101139.00;;;;4902778;28;88032;-77
2024/01/25 08:21:21;;;;;;;3.73;2.13;;;8.00;99.90;7.90;101139.00;;;;4895195;28;117915;-76
2024/01/25 08:23:47;;;;;;;5.90;1.83;;;8.00;99.90;7.80;101136.00;;;;4901150;28;116948;-73
2024/01/25 08:26:13;;;;;;;5.27;2.20;;;8.00;99.90;7.90;101136.00;;;;4900660;28;87210;-74
2024/01/25 08:28:46;;;;;;;5.47;2.10;;;8.00;99.90;7.80;101152.00;;;;4894323;28;87986;-73
2024/01/25 08:31:12;;;;;;;7.50;2.30;;;8.00;99.90;7.90;101140.00;;;;4898234;28;89257;-77
2024/01/25 08:33:43;;;;;;;8.73;2.27;;;8.00;99.90;7.90;101139.00;;;;4892369;28;106158;-74
2024/01/25 08:36:10;;;;;;;6.63;1.87;;;8.00;99.90;7.90;101145.00;;;;4899063;28;87980;-75
2024/01/25 08:38:35;;;;;;;3.57;1.77;;;8.00;99.90;7.90;101155.00;;;;4898547;28;97462;-73
2024/01/25 08:41:01;;;;;;;3.63;1.30;;;8.10;99.90;7.90;101147.00;;;;4902744;28;88502;-72
2024/01/25 08:43:27;;;;;;;4.47;1.97;;;8.00;99.90;7.90;101150.00;;;;4902708;28;89170;-73
2024/01/25 08:45:53;;;;;;;10.17;1.67;;;8.00;99.90;7.90;101141.00;;;;4899581;28;88693;-72
2024/01/25 08:48:18;;;;;;;3.60;2.20;;;8.00;99.90;7.90;101159.00;;;;4913612;28;108673;-76
2024/01/25 08:50:44;;;;;;;4.30;1.73;;;8.00;99.90;7.90;101148.00;;;;4900282;28;117087;-76
2024/01/25 08:53:10;;;;;;;4.83;2.33;;;8.10;99.90;8.00;101150.00;;;;4900128;28;115468;-75
2024/01/25 08:55:35;;;;;;;4.13;2.03;;;8.00;99.90;8.00;101153.00;;;;4898167;28;88079;-73
2024/01/25 08:58:01;;;;;;;4.77;1.37;;;8.10;99.90;8.00;101154.00;;;;4897873;28;107439;-75
2024/01/25 09:00:27;;;;;;;8.03;1.43;;;8.10;99.90;8.00;101152.00;;;;4900419;28;116813;-73
2024/01/25 09:02:53;;;;;;;2.57;1.37;;;8.10;99.90;8.00;101164.00;;;;4900248;28;88730;-73
2024/01/25 09:05:19;;;;;;;7.87;2.27;;;8.20;99.90;8.10;101168.00;;;;4899154;28;109869;-72
2024/01/25 09:07:45;;;;;;;3.57;1.30;;;8.60;99.90;8.00;101161.00;;;;4916278;28;97772;-74
2024/01/25 09:10:11;;;;;;;8.93;1.80;;;8.20;99.90;8.10;101185.00;;;;4899286;28;117615;-72
2024/01/25 09:12:37;;;;;;;12.07;1.93;;;8.20;99.90;8.10;101187.00;;;;4901407;28;87788;-72
2024/01/25 09:15:03;;;;;;;2.67;1.37;;;8.20;99.90;8.20;101204.00;;;;4899889;28;87246;-71
2024/01/25 09:17:29;;;;;;;10.07;1.73;;;8.30;99.90;8.30;101174.00;;;;4897712;28;89855;-72
2024/01/25 09:19:58;;;;;;;4.13;1.63;;;8.40;99.90;8.30;101189.00;;;;4898945;28;117335;-73
2024/01/25 09:22:24;;;;;;;6.90;1.53;;;8.40;99.90;8.40;101188.00;;;;4898643;28;90647;-72
2024/01/25 09:24:50;;;;;;;5.43;1.57;;;8.50;99.90;8.50;101189.00;;;;4899177;28;109947;-72
2024/01/25 09:27:15;;;;;;;2.73;1.50;;;8.50;99.90;8.60;101186.00;;;;4899554;28;87872;-72
2024/01/25 09:29:42;;;;;;;3.73;1.80;;;8.60;99.90;8.80;101202.00;;;;4900496;28;116973;-74
2024/01/25 09:32:09;;;;;;;9.03;1.67;;;8.80;99.90;8.90;101199.00;;;;4902975;28;88349;-72
2024/01/25 09:34:36;;;;;;;5.60;1.47;;;8.90;99.90;9.10;101188.00;;;;4900287;28;87779;-73
2024/01/25 09:37:02;;;;;;;7.37;2.00;;;9.10;99.90;9.30;101188.00;;;;4909863;28;88272;-73
2024/01/25 09:39:29;;;;;;;6.13;1.43;;;9.30;99.90;9.40;101195.00;;;;4895466;28;109158;-71
2024/01/25 09:41:54;;;;;;;7.20;1.43;;;9.50;99.90;9.50;101195.00;;;;4904084;28;87803;-74
2024/01/25 09:44:21;;;;;;;5.20;1.93;;;9.50;99.90;9.60;101184.00;;;;4897040;28;113601;-72
2024/01/25 09:46:47;;;;;;;7.23;1.33;;;9.60;99.90;9.90;101207.00;;;;4917846;28;88724;-72
2024/01/25 09:49:13;;;;;;;2.73;0.93;;;9.90;99.90;10.10;101216.00;;;;4896831;28;119189;-72
2024/01/25 09:51:41;;;;;;;3.80;1.23;;;10.10;99.90;10.30;101200.00;;;;4899687;28;88703;-74
2024/01/25 09:54:08;;;;;;;3.40;1.43;;;10.30;99.90;10.50;101205.00;;;;4898241;28;88163;-75
2024/01/25 09:56:35;;;;;;;2.70;1.57;;;10.50;99.90;10.40;101217.00;;;;4900859;28;109798;-72
2024/01/25 09:59:01;;;;;;;5.93;1.40;;;10.50;99.30;10.30;101225.00;;;;4901206;28;89338;-71
2024/01/25 10:01:27;;;;;;;4.60;1.63;;;10.40;98.90;10.20;101216.00;;;;4899109;28;88771;-74
2024/01/25 10:03:56;;;;;;;4.43;2.17;;;10.30;99.00;10.30;101210.00;;;;4896768;28;109444;-73
2024/01/25 10:06:22;;;;;;;4.60;2.13;;;10.30;99.30;10.30;101214.00;;;;4901126;28;88066;-74
2024/01/25 10:08:48;;;;;;;6.00;1.70;;;10.40;98.90;10.20;101194.00;;;;4874008;28;90186;-74
2024/01/25 10:11:14;;;;;;;5.60;1.43;;;10.30;98.40;10.20;101211.00;;;;4896506;28;89196;-71
2024/01/25 10:13:50;;;;;;;2.83;1.47;;;10.30;98.30;10.20;101213.00;;;;4899605;28;87807;-71
2024/01/25 10:16:19;;;;;;;4.47;1.33;;;10.30;97.90;10.30;101208.00;;;;4898880;28;88433;-73
2024/01/25 10:18:49;;;;;;;11.20;1.93;;;10.40;98.10;10.40;101219.00;;;;4888193;28;87830;-72
2024/01/25 10:21:16;;;;;;;2.63;0.70;;;10.50;98.00;10.30;101227.00;;;;4898093;28;88620;-71
2024/01/25 10:23:45;;;;;;;6.00;1.77;;;10.40;97.80;10.20;101254.00;;;;4895109;28;88006;-73
2024/01/25 10:26:11;;;;;;;1.53;1.27;;;10.30;97.60;10.10;101257.00;;;;4899416;28;88097;-73
2024/01/25 10:28:37;;;;;;;7.67;1.50;;;10.20;97.50;9.90;101258.00;;;;4898716;28;117214;-74
2024/01/25 10:31:04;;;;;;;3.90;1.47;;;10.00;97.60;9.80;101251.00;;;;4902135;28;87929;-74
2024/01/25 10:33:31;;;;;;;2.70;1.20;;;10.00;98.00;9.70;101260.00;;;;4901879;28;87997;-75
2024/01/25 10:36:03;;;;;;;6.50;1.80;;;9.90;98.00;9.60;101260.00;;;;4900595;28;88757;-71
2024/01/25 10:38:37;;;;;;;6.30;2.03;;;9.80;98.10;9.60;101259.00;;;;4914360;28;88257;-73
2024/01/25 10:41:05;;;;;;;5.03;1.47;;;9.80;98.20;9.50;101247.00;;;;4896480;28;90293;-72
2024/01/25 10:43:32;;;;;;;4.90;1.10;;;9.70;98.10;9.50;101260.00;;;;4901070;28;87811;-73
2024/01/25 10:45:59;;;;;;;1.83;1.30;;;9.60;98.30;9.50;101251.00;;;;4898889;28;92313;-72
2024/01/25 10:48:26;;;;;;;7.60;1.53;;;9.60;98.20;9.70;101250.00;;;;4896679;28;88005;-72
2024/01/25 10:50:55;;;;;;;9.80;2.17;;;9.70;98.40;9.70;101261.00;;;;4895920;28;88734;-72
2024/01/25 10:53:25;;;;;;;7.43;1.83;;;9.80;98.20;9.70;101270.00;;;;4896122;28;87246;-71